Time;durP1;ratioP1;P1;durP2;ratioP2;P2;SDS_P1;SDS_P2;PMS_P1;PMS_P2;Temp;Humidity;BMP_temperature;BMP_pressure;BME280_temperature;BME280_humidity;BME280_pressure;Samples;Min_cycle;Max_cycle;Signal;HPM_P1;HPM_P2
2023/02/12 00:02:18;;;;;;;2.58;0.60;;;;;;;;;;5019975;28;20041;-63
2023/02/12 00:04:44;;;;;;;1.13;0.45;;;;;;;;;;5018882;28;20050;-63
2023/02/12 00:07:12;;;;;;;2.90;0.57;;;;;;;;;;5018942;28;20046;-63
2023/02/12 00:09:38;;;;;;;4.47;0.60;;;;;;;;;;5017460;28;20103;-62
2023/02/12 00:12:05;;;;;;;2.60;0.60;;;;;;;;;;5019248;28;20462;-63
2023/02/12 00:14:33;;;;;;;5.30;0.90;;;;;;;;;;5018406;28;20073;-64
2023/02/12 00:17:00;;;;;;;3.90;0.70;;;;;;;;;;5008264;28;20048;-63
2023/02/12 00:19:26;;;;;;;0.82;0.40;;;;;;;;;;5017636;28;20045;-66
2023/02/12 00:21:53;;;;;;;2.08;0.50;;;;;;;;;;5018744;28;20033;-63
2023/02/12 00:24:20;;;;;;;2.60;0.60;;;;;;;;;;5018295;28;20061;-64
2023/02/12 00:26:47;;;;;;;1.40;0.40;;;;;;;;;;5019430;28;20040;-63
2023/02/12 00:29:14;;;;;;;2.20;0.63;;;;;;;;;;5018923;28;20049;-61
2023/02/12 00:31:41;;;;;;;1.10;0.40;;;;;;;;;;5017393;28;20052;-64
2023/02/12 00:34:07;;;;;;;2.08;0.60;;;;;;;;;;5018826;28;20048;-63
2023/02/12 00:36:34;;;;;;;2.00;0.57;;;;;;;;;;5017041;28;20038;-61
2023/02/12 00:39:01;;;;;;;2.30;0.60;;;;;;;;;;5019403;28;20099;-61
2023/02/12 00:41:27;;;;;;;2.90;0.60;;;;;;;;;;5017160;28;20924;-61
2023/02/12 00:43:54;;;;;;;2.00;0.60;;;;;;;;;;5018131;28;20516;-63
2023/02/12 00:46:21;;;;;;;2.45;0.60;;;;;;;;;;5018275;28;20394;-62
2023/02/12 00:48:47;;;;;;;1.63;0.50;;;;;;;;;;5005733;28;20049;-65
2023/02/12 00:51:14;;;;;;;1.45;0.50;;;;;;;;;;5013486;28;20049;-62
2023/02/12 00:53:41;;;;;;;4.22;0.63;;;;;;;;;;4998827;28;22061;-64
2023/02/12 00:56:08;;;;;;;2.03;0.57;;;;;;;;;;5000140;28;20888;-63
2023/02/12 00:58:35;;;;;;;4.78;0.60;;;;;;;;;;4997504;28;20553;-64
2023/02/12 01:01:02;;;;;;;1.58;0.50;;;;;;;;;;4998757;28;20037;-63
2023/02/12 01:03:28;;;;;;;1.90;0.60;;;;;;;;;;5000363;28;20049;-65
2023/02/12 01:05:56;;;;;;;4.20;0.70;;;;;;;;;;5002436;28;20042;-62
2023/02/12 01:08:22;;;;;;;4.07;0.82;;;;;;;;;;5002182;28;20376;-62
2023/02/12 01:10:57;;;;;;;1.80;0.57;;;;;;;;;;5003426;28;20041;-62
2023/02/12 01:13:24;;;;;;;2.38;0.57;;;;;;;;;;5001727;28;20064;-64
2023/02/12 01:16:00;;;;;;;1.38;0.40;;;;;;;;;;5008838;28;20042;-62
2023/02/12 01:18:27;;;;;;;1.63;0.60;;;;;;;;;;5016615;28;20152;-61
2023/02/12 01:20:53;;;;;;;5.13;0.70;;;;;;;;;;5015971;28;20044;-61
2023/02/12 01:23:20;;;;;;;1.30;0.45;;;;;;;;;;5001743;28;20856;-61
2023/02/12 01:25:47;;;;;;;1.80;0.60;;;;;;;;;;5001421;28;20050;-61
2023/02/12 01:28:13;;;;;;;8.60;0.70;;;;;;;;;;5001492;28;20510;-62
2023/02/12 01:30:42;;;;;;;1.65;0.50;;;;;;;;;;5000967;28;20081;-62
2023/02/12 01:33:09;;;;;;;2.25;0.60;;;;;;;;;;5002184;28;20045;-60
2023/02/12 01:35:37;;;;;;;4.72;1.40;;;;;;;;;;5003264;28;20072;-59
2023/02/12 01:38:04;;;;;;;4.22;0.95;;;;;;;;;;5013865;28;20042;-65
2023/02/12 01:40:30;;;;;;;2.25;0.60;;;;;;;;;;5000125;28;20088;-64
2023/02/12 01:43:00;;;;;;;4.38;0.80;;;;;;;;;;5011927;28;20056;-60
2023/02/12 01:45:32;;;;;;;2.30;0.70;;;;;;;;;;4999717;28;20050;-62
2023/02/12 01:47:59;;;;;;;4.30;0.87;;;;;;;;;;5012971;28;20060;-61
2023/02/12 01:50:26;;;;;;;3.35;1.00;;;;;;;;;;4997595;28;20872;-61
2023/02/12 01:52:56;;;;;;;3.33;0.90;;;;;;;;;;5002345;28;20714;-62
2023/02/12 01:55:23;;;;;;;3.08;0.75;;;;;;;;;;5003002;28;20046;-62
2023/02/12 01:57:50;;;;;;;5.65;0.80;;;;;;;;;;5000018;28;20062;-66
2023/02/12 02:00:21;;;;;;;6.25;1.05;;;;;;;;;;5003856;28;20497;-63
2023/02/12 02:02:50;;;;;;;4.70;1.20;;;;;;;;;;5007843;28;20042;-64
2023/02/12 02:05:21;;;;;;;5.25;1.02;;;;;;;;;;4999849;28;20530;-63
2023/02/12 02:07:47;;;;;;;5.03;0.82;;;;;;;;;;5020189;28;20052;-64
2023/02/12 02:10:14;;;;;;;7.43;1.25;;;;;;;;;;5020336;28;20605;-64
2023/02/12 02:15:27;;;;;;;7.63;1.05;;;;;;;;;;5017834;28;20068;-64
2023/02/12 02:17:59;;;;;;;5.50;0.90;;;;;;;;;;5021455;28;20053;-63
2023/02/12 02:20:28;;;;;;;3.20;0.73;;;;;;;;;;5020936;28;20029;-63
2023/02/12 02:22:58;;;;;;;4.15;0.90;;;;;;;;;;5019968;28;20041;-62
2023/02/12 02:25:30;;;;;;;9.07;0.95;;;;;;;;;;5021261;28;21149;-65
2023/02/12 02:28:06;;;;;;;5.68;0.90;;;;;;;;;;5021157;28;20042;-63
2023/02/12 02:30:43;;;;;;;4.28;0.93;;;;;;;;;;5018270;28;20091;-64
2023/02/12 02:33:10;;;;;;;2.90;0.80;;;;;;;;;;5018533;28;20128;-63
2023/02/12 02:35:46;;;;;;;3.65;1.10;;;;;;;;;;5020171;28;22412;-63
2023/02/12 02:38:31;;;;;;;3.13;0.88;;;;;;;;;;5020227;28;20044;-62
2023/02/12 02:41:22;;;;;;;2.95;0.90;;;;;;;;;;5014817;28;20041;-63
2023/02/12 02:43:50;;;;;;;2.25;0.65;;;;;;;;;;5004179;28;20045;-62
2023/02/12 02:46:28;;;;;;;3.20;0.70;;;;;;;;;;5001967;28;20093;-63
2023/02/12 02:48:58;;;;;;;3.92;0.77;;;;;;;;;;4999257;28;20080;-63
2023/02/12 02:51:30;;;;;;;2.47;0.60;;;;;;;;;;4999612;28;20045;-64
2023/02/12 02:54:18;;;;;;;2.17;0.77;;;;;;;;;;4997571;28;20361;-62
2023/02/12 02:56:47;;;;;;;5.95;1.08;;;;;;;;;;5009545;28;20073;-63
2023/02/12 02:59:26;;;;;;;1.80;0.68;;;;;;;;;;5003717;28;20154;-62
2023/02/12 03:01:56;;;;;;;2.30;0.70;;;;;;;;;;5004258;28;20099;-63
2023/02/12 03:04:25;;;;;;;1.92;0.65;;;;;;;;;;5003086;28;20419;-62
2023/02/12 03:07:01;;;;;;;3.25;0.70;;;;;;;;;;4995290;28;20148;-63
2023/02/12 03:09:30;;;;;;;1.77;0.50;;;;;;;;;;4999495;28;20045;-64
2023/02/12 03:12:01;;;;;;;2.15;0.50;;;;;;;;;;5000054;28;20111;-63
2023/02/12 03:14:30;;;;;;;1.75;0.60;;;;;;;;;;5000629;28;20413;-64
2023/02/12 03:17:16;;;;;;;1.45;0.50;;;;;;;;;;4998464;28;20182;-64
2023/02/12 03:19:46;;;;;;;1.58;0.50;;;;;;;;;;4999229;28;20129;-61
2023/02/12 03:22:18;;;;;;;2.30;0.60;;;;;;;;;;4999142;28;20092;-61
2023/02/12 03:24:56;;;;;;;2.60;0.70;;;;;;;;;;4998247;28;20410;-64
2023/02/12 03:27:55;;;;;;;1.25;0.50;;;;;;;;;;4998299;28;20030;-62
2023/02/12 03:30:25;;;;;;;1.75;0.50;;;;;;;;;;4950668;28;20057;-62
2023/02/12 03:33:04;;;;;;;1.65;0.50;;;;;;;;;;4999408;28;20037;-63
2023/02/12 03:35:37;;;;;;;1.98;0.60;;;;;;;;;;4998316;28;20573;-61
2023/02/12 03:38:04;;;;;;;;;;;;;;;;;;4995514;28;20143;-62
2023/02/12 03:40:34;;;;;;;1.88;0.57;;;;;;;;;;4997828;28;20015;-63
2023/02/12 03:43:20;;;;;;;2.10;0.60;;;;;;;;;;4999474;28;20038;-62
2023/02/12 03:45:56;;;;;;;1.40;0.47;;;;;;;;;;4976654;28;20119;-60
2023/02/12 03:48:33;;;;;;;1.02;0.47;;;;;;;;;;4989347;28;20417;-61
2023/02/12 03:51:18;;;;;;;2.15;0.52;;;;;;;;;;4974977;28;20049;-64
2023/02/12 03:53:46;;;;;;;1.98;0.60;;;;;;;;;;5000073;28;20037;-62
2023/02/12 03:56:15;;;;;;;1.45;0.55;;;;;;;;;;5003406;28;20100;-64
2023/02/12 03:58:42;;;;;;;2.00;0.70;;;;;;;;;;4997693;28;20053;-61
2023/02/12 04:01:09;;;;;;;1.63;0.50;;;;;;;;;;4999895;28;20053;-63
2023/02/12 04:03:37;;;;;;;2.22;0.52;;;;;;;;;;4998313;28;20038;-64
2023/02/12 04:06:05;;;;;;;2.40;0.70;;;;;;;;;;5012050;28;20038;-62
2023/02/12 04:08:32;;;;;;;2.35;0.60;;;;;;;;;;4997198;28;20042;-63
2023/02/12 04:11:02;;;;;;;1.98;0.52;;;;;;;;;;5000036;28;20034;-61
2023/02/12 04:13:43;;;;;;;2.33;0.70;;;;;;;;;;4999616;28;20057;-65
2023/02/12 04:16:26;;;;;;;1.63;0.77;;;;;;;;;;5001234;28;20046;-64
2023/02/12 04:18:53;;;;;;;2.22;0.50;;;;;;;;;;5006331;28;20038;-64
2023/02/12 04:21:43;;;;;;;1.88;0.50;;;;;;;;;;4997708;28;20765;-64
2023/02/12 04:24:27;;;;;;;2.10;0.50;;;;;;;;;;5012962;28;20209;-65
2023/02/12 04:27:04;;;;;;;1.35;0.40;;;;;;;;;;5001414;28;20131;-64
2023/02/12 04:29:40;;;;;;;1.15;0.43;;;;;;;;;;5006453;28;20045;-63
2023/02/12 04:32:09;;;;;;;1.48;0.52;;;;;;;;;;5004151;28;20038;-65
2023/02/12 04:34:51;;;;;;;2.25;0.50;;;;;;;;;;5015198;28;20073;-64
2023/02/12 04:37:24;;;;;;;3.70;0.70;;;;;;;;;;5022285;28;20044;-62
2023/02/12 04:39:51;;;;;;;1.50;0.60;;;;;;;;;;5007419;28;20072;-65
2023/02/12 04:42:18;;;;;;;2.05;0.50;;;;;;;;;;5000509;28;20038;-65
2023/02/12 04:44:44;;;;;;;1.90;0.50;;;;;;;;;;5002094;28;20375;-63
2023/02/12 04:47:12;;;;;;;1.60;0.50;;;;;;;;;;5001838;28;20042;-63
2023/02/12 04:49:39;;;;;;;5.53;0.50;;;;;;;;;;4998418;28;20096;-65
2023/02/12 04:52:06;;;;;;;2.60;0.50;;;;;;;;;;5001408;28;20131;-64
2023/02/12 04:54:32;;;;;;;1.30;0.50;;;;;;;;;;5000599;28;20037;-65
2023/02/12 04:56:59;;;;;;;1.13;0.40;;;;;;;;;;4984401;28;20117;-65
2023/02/12 04:59:26;;;;;;;1.63;0.50;;;;;;;;;;4982597;28;20128;-67
2023/02/12 05:01:53;;;;;;;1.05;0.40;;;;;;;;;;5000231;28;20521;-63
2023/02/12 05:04:20;;;;;;;0.93;0.40;;;;;;;;;;4980312;28;20134;-65
2023/02/12 05:06:46;;;;;;;2.00;0.52;;;;;;;;;;4996448;28;20041;-65
2023/02/12 05:09:14;;;;;;;1.13;0.43;;;;;;;;;;5000798;28;20080;-64
2023/02/12 05:11:41;;;;;;;1.58;0.50;;;;;;;;;;4998361;28;22508;-63
2023/02/12 05:14:07;;;;;;;1.75;0.50;;;;;;;;;;5001329;28;20038;-62
2023/02/12 05:16:34;;;;;;;0.90;0.40;;;;;;;;;;5000486;28;20037;-61
2023/02/12 05:19:01;;;;;;;1.73;0.60;;;;;;;;;;5001814;28;20200;-60
2023/02/12 05:21:28;;;;;;;0.68;0.40;;;;;;;;;;5001425;28;20541;-66
2023/02/12 05:23:54;;;;;;;3.67;0.60;;;;;;;;;;4998806;28;20056;-64
2023/02/12 05:26:22;;;;;;;2.40;0.70;;;;;;;;;;5006771;28;20045;-64
2023/02/12 05:28:48;;;;;;;1.63;0.50;;;;;;;;;;5014123;28;20111;-62
2023/02/12 05:31:16;;;;;;;2.58;0.50;;;;;;;;;;5016361;28;20026;-65
2023/02/12 05:33:43;;;;;;;2.00;0.50;;;;;;;;;;5001425;28;20052;-63
2023/02/12 05:36:14;;;;;;;1.98;0.50;;;;;;;;;;4984791;28;20152;-65
2023/02/12 05:38:41;;;;;;;1.02;0.40;;;;;;;;;;5000772;28;20030;-63
2023/02/12 05:41:10;;;;;;;1.38;0.40;;;;;;;;;;5003486;28;20120;-64
2023/02/12 05:43:37;;;;;;;1.88;0.50;;;;;;;;;;5003884;28;20049;-64
2023/02/12 05:46:04;;;;;;;1.75;0.50;;;;;;;;;;5006816;28;20108;-62
2023/02/12 05:48:32;;;;;;;0.95;0.40;;;;;;;;;;5013870;28;20667;-64
2023/02/12 05:51:05;;;;;;;1.50;0.50;;;;;;;;;;5009960;28;20057;-65
2023/02/12 05:53:32;;;;;;;1.83;0.50;;;;;;;;;;4999642;28;21079;-64
2023/02/12 05:56:13;;;;;;;1.30;0.40;;;;;;;;;;5002146;28;20042;-62
2023/02/12 05:58:41;;;;;;;0.93;0.40;;;;;;;;;;5004653;28;20037;-65
2023/02/12 06:01:15;;;;;;;1.52;0.47;;;;;;;;;;5000585;28;20076;-64
2023/02/12 06:03:42;;;;;;;1.20;0.47;;;;;;;;;;5000887;28;20049;-64
2023/02/12 06:06:10;;;;;;;1.20;0.40;;;;;;;;;;5001583;28;20055;-63
2023/02/12 06:08:37;;;;;;;2.75;0.50;;;;;;;;;;5000444;28;20949;-63
2023/02/12 06:11:04;;;;;;;1.02;0.40;;;;;;;;;;5001045;28;20611;-64
2023/02/12 06:13:32;;;;;;;2.45;0.50;;;;;;;;;;5002341;28;20037;-66
2023/02/12 06:15:59;;;;;;;3.42;0.60;;;;;;;;;;5003249;28;20087;-64
2023/02/12 06:18:26;;;;;;;2.50;0.50;;;;;;;;;;5001848;28;20046;-64
2023/02/12 06:20:56;;;;;;;2.85;0.50;;;;;;;;;;5002174;28;20029;-63
2023/02/12 06:23:23;;;;;;;2.20;0.40;;;;;;;;;;5000531;28;20118;-63
2023/02/12 06:25:50;;;;;;;2.47;0.73;;;;;;;;;;5002383;28;20050;-63
2023/02/12 06:28:17;;;;;;;1.60;0.52;;;;;;;;;;5001754;28;20045;-62
2023/02/12 06:30:45;;;;;;;1.55;0.50;;;;;;;;;;4995444;28;20782;-64
2023/02/12 06:33:11;;;;;;;3.60;0.50;;;;;;;;;;5000747;28;20049;-65
2023/02/12 06:35:38;;;;;;;1.88;0.50;;;;;;;;;;5001433;28;20070;-62
2023/02/12 06:38:06;;;;;;;1.33;0.45;;;;;;;;;;4999395;28;20042;-63
2023/02/12 06:40:33;;;;;;;1.23;0.50;;;;;;;;;;5002294;28;20057;-63
2023/02/12 06:43:00;;;;;;;2.03;0.60;;;;;;;;;;4999786;28;20069;-63
2023/02/12 06:45:26;;;;;;;2.92;0.60;;;;;;;;;;4999172;28;20045;-66
2023/02/12 06:47:53;;;;;;;1.60;0.50;;;;;;;;;;4996159;28;20045;-66
2023/02/12 06:50:20;;;;;;;1.88;0.50;;;;;;;;;;4998293;28;20077;-65
2023/02/12 06:52:46;;;;;;;1.77;0.60;;;;;;;;;;5005907;28;20042;-65
2023/02/12 06:55:15;;;;;;;1.95;0.60;;;;;;;;;;5001125;28;20042;-66
2023/02/12 06:57:42;;;;;;;1.77;0.70;;;;;;;;;;4998324;28;20914;-65
2023/02/12 07:00:09;;;;;;;1.42;0.55;;;;;;;;;;5005464;28;20462;-65
2023/02/12 07:02:36;;;;;;;2.83;0.65;;;;;;;;;;5016142;28;20026;-65
2023/02/12 07:05:02;;;;;;;2.80;0.70;;;;;;;;;;5017383;28;20067;-67
2023/02/12 07:07:29;;;;;;;2.90;0.70;;;;;;;;;;5006894;28;20099;-65
2023/02/12 07:09:56;;;;;;;2.40;0.57;;;;;;;;;;5013804;28;21468;-63
2023/02/12 07:12:22;;;;;;;1.33;0.45;;;;;;;;;;4997981;28;20123;-65
2023/02/12 07:14:49;;;;;;;1.77;0.60;;;;;;;;;;4998302;28;20050;-63
2023/02/12 07:17:16;;;;;;;2.05;0.60;;;;;;;;;;4999295;28;20065;-65
2023/02/12 07:19:42;;;;;;;3.00;0.98;;;;;;;;;;4999381;28;20045;-62
2023/02/12 07:22:09;;;;;;;2.58;0.75;;;;;;;;;;5002142;28;20083;-64
2023/02/12 07:24:37;;;;;;;2.42;0.90;;;;;;;;;;5000542;28;20050;-62
2023/02/12 07:27:04;;;;;;;2.80;0.68;;;;;;;;;;5000323;28;20038;-61
2023/02/12 07:29:31;;;;;;;1.75;0.43;;;;;;;;;;5014870;28;20048;-64
2023/02/12 07:31:57;;;;;;;1.63;0.50;;;;;;;;;;4997729;28;20041;-62
2023/02/12 07:34:24;;;;;;;1.92;0.60;;;;;;;;;;4999198;28;20045;-64
2023/02/12 07:36:50;;;;;;;1.80;0.50;;;;;;;;;;5000069;28;20735;-64
2023/02/12 07:39:17;;;;;;;1.30;0.50;;;;;;;;;;5001660;28;20323;-62
2023/02/12 07:41:46;;;;;;;1.02;0.40;;;;;;;;;;5018168;28;20048;-63
2023/02/12 07:44:13;;;;;;;2.22;0.45;;;;;;;;;;5021028;28;20049;-62
2023/02/12 07:46:41;;;;;;;2.50;0.50;;;;;;;;;;5023904;28;20045;-64
2023/02/12 07:49:11;;;;;;;2.47;0.75;;;;;;;;;;5025463;28;20045;-64
2023/02/12 07:51:38;;;;;;;3.30;0.60;;;;;;;;;;5021119;28;20596;-64
2023/02/12 07:54:05;;;;;;;1.27;0.40;;;;;;;;;;5024719;28;20059;-65
2023/02/12 07:56:34;;;;;;;2.33;0.40;;;;;;;;;;5021570;28;20034;-63
2023/02/12 07:59:02;;;;;;;2.50;0.70;;;;;;;;;;5018892;28;20045;-64
2023/02/12 08:01:33;;;;;;;1.02;0.35;;;;;;;;;;5017624;28;20053;-64
2023/02/12 08:04:01;;;;;;;0.55;0.30;;;;;;;;;;5019341;28;20485;-63
2023/02/12 08:06:29;;;;;;;1.55;0.47;;;;;;;;;;5017876;28;20033;-62
2023/02/12 08:08:57;;;;;;;1.08;0.30;;;;;;;;;;5020050;28;20205;-65
2023/02/12 08:11:24;;;;;;;1.67;0.50;;;;;;;;;;5015241;28;20423;-61
2023/02/12 08:13:51;;;;;;;1.55;0.50;;;;;;;;;;5019952;28;20087;-61
2023/02/12 08:16:22;;;;;;;1.17;0.40;;;;;;;;;;5020061;28;20041;-62
2023/02/12 08:19:09;;;;;;;2.47;0.57;;;;;;;;;;5036934;28;20048;-63
2023/02/12 08:21:35;;;;;;;1.70;0.40;;;;;;;;;;5035073;28;20152;-63
2023/02/12 08:24:02;;;;;;;1.85;0.60;;;;;;;;;;5035487;28;20511;-62
2023/02/12 08:26:30;;;;;;;0.65;0.32;;;;;;;;;;5035653;28;20036;-62
2023/02/12 08:29:07;;;;;;;1.33;0.40;;;;;;;;;;5036663;28;21882;-62
2023/02/12 08:31:35;;;;;;;1.05;0.40;;;;;;;;;;5034858;28;20882;-65
2023/02/12 08:34:02;;;;;;;1.13;0.40;;;;;;;;;;5036254;28;20045;-63
2023/02/12 08:36:30;;;;;;;1.02;0.50;;;;;;;;;;5034573;28;20041;-63
2023/02/12 08:38:59;;;;;;;1.33;0.40;;;;;;;;;;5034973;28;20120;-63
2023/02/12 08:41:30;;;;;;;1.52;0.50;;;;;;;;;;5034957;28;20135;-64
2023/02/12 08:43:58;;;;;;;1.77;0.50;;;;;;;;;;5031139;28;20128;-65
2023/02/12 08:46:26;;;;;;;2.22;0.40;;;;;;;;;;5016496;28;20794;-64
2023/02/12 08:48:56;;;;;;;0.80;0.40;;;;;;;;;;5035278;28;20041;-65
2023/02/12 08:51:24;;;;;;;2.35;0.55;;;;;;;;;;5034629;28;20048;-65
2023/02/12 08:53:55;;;;;;;2.53;0.40;;;;;;;;;;5036518;28;20044;-65
2023/02/12 08:56:22;;;;;;;0.90;0.40;;;;;;;;;;5028350;28;20506;-65
2023/02/12 08:58:49;;;;;;;1.25;0.43;;;;;;;;;;5017537;28;20045;-61
2023/02/12 09:01:18;;;;;;;2.30;0.60;;;;;;;;;;5018204;28;20036;-65
2023/02/12 09:03:45;;;;;;;0.80;0.40;;;;;;;;;;4999937;28;20033;-63
2023/02/12 09:06:12;;;;;;;0.85;0.32;;;;;;;;;;5019152;28;20034;-65
2023/02/12 09:08:39;;;;;;;1.00;0.40;;;;;;;;;;5016406;28;20040;-64
2023/02/12 09:11:07;;;;;;;1.08;0.40;;;;;;;;;;5019669;28;20045;-62
2023/02/12 09:13:34;;;;;;;1.05;0.40;;;;;;;;;;5018832;28;20504;-64
2023/02/12 09:16:02;;;;;;;0.60;0.40;;;;;;;;;;5001439;28;20458;-64
2023/02/12 09:18:29;;;;;;;1.00;0.40;;;;;;;;;;5016302;28;20227;-63
2023/02/12 09:21:00;;;;;;;0.65;0.30;;;;;;;;;;5017279;28;21113;-63
2023/02/12 09:23:26;;;;;;;0.82;0.40;;;;;;;;;;5018431;28;20037;-65
2023/02/12 09:25:53;;;;;;;1.23;0.40;;;;;;;;;;5023180;28;20132;-62
2023/02/12 09:28:19;;;;;;;1.17;0.45;;;;;;;;;;5021437;28;20041;-63
2023/02/12 09:30:46;;;;;;;1.83;0.50;;;;;;;;;;5020932;28;20430;-62
2023/02/12 09:33:13;;;;;;;0.95;0.40;;;;;;;;;;5022686;28;20053;-63
2023/02/12 09:35:40;;;;;;;0.90;0.40;;;;;;;;;;5019012;28;23031;-64
2023/02/12 09:38:07;;;;;;;1.05;0.40;;;;;;;;;;5003332;28;21026;-64
2023/02/12 09:40:46;;;;;;;1.55;0.40;;;;;;;;;;5001765;28;20037;-62
2023/02/12 09:43:19;;;;;;;1.63;0.50;;;;;;;;;;4998975;28;20347;-62
2023/02/12 09:46:04;;;;;;;1.45;0.40;;;;;;;;;;5021108;28;20684;-63
2023/02/12 09:48:49;;;;;;;1.38;0.43;;;;;;;;;;5017084;28;20147;-64
2023/02/12 09:51:17;;;;;;;3.25;0.50;;;;;;;;;;5021916;28;20076;-63
2023/02/12 09:53:45;;;;;;;2.53;0.50;;;;;;;;;;5023176;28;20498;-64
2023/02/12 09:56:15;;;;;;;1.02;0.40;;;;;;;;;;5021670;28;20054;-63
2023/02/12 09:58:51;;;;;;;1.27;0.45;;;;;;;;;;5020761;28;20041;-64
2023/02/12 10:01:19;;;;;;;1.65;0.50;;;;;;;;;;5021162;28;20080;-63
2023/02/12 10:03:46;;;;;;;2.08;0.60;;;;;;;;;;5003502;28;20056;-64
2023/02/12 10:06:17;;;;;;;1.63;0.50;;;;;;;;;;5020703;28;20136;-63
2023/02/12 10:08:59;;;;;;;0.98;0.40;;;;;;;;;;5011405;28;20049;-63
2023/02/12 10:11:35;;;;;;;1.30;0.50;;;;;;;;;;5020636;28;20072;-64
2023/02/12 10:14:20;;;;;;;1.10;0.40;;;;;;;;;;5021419;28;20036;-64
2023/02/12 10:16:55;;;;;;;0.93;0.40;;;;;;;;;;5019893;28;20493;-62
2023/02/12 10:19:22;;;;;;;0.98;0.40;;;;;;;;;;5020404;28;20088;-63
2023/02/12 10:22:07;;;;;;;1.25;0.45;;;;;;;;;;5020026;28;20423;-63
2023/02/12 10:24:42;;;;;;;3.25;0.50;;;;;;;;;;5021000;28;20577;-63
2023/02/12 10:27:14;;;;;;;2.70;0.32;;;;;;;;;;5013067;28;20069;-64
2023/02/12 10:29:42;;;;;;;1.73;0.40;;;;;;;;;;5019231;28;20123;-64
2023/02/12 10:32:24;;;;;;;1.27;0.40;;;;;;;;;;5021162;28;20099;-66
2023/02/12 10:34:51;;;;;;;1.13;0.40;;;;;;;;;;5017375;28;20094;-64
2023/02/12 10:37:24;;;;;;;1.55;0.40;;;;;;;;;;5020577;28;20053;-64
2023/02/12 10:39:56;;;;;;;0.98;0.40;;;;;;;;;;5021974;28;20037;-62
2023/02/12 10:42:35;;;;;;;0.32;0.30;;;;;;;;;;5019840;28;20041;-63
2023/02/12 10:45:02;;;;;;;1.42;0.43;;;;;;;;;;5020067;28;20060;-64
2023/02/12 10:47:29;;;;;;;0.45;0.35;;;;;;;;;;5013912;28;20042;-65
2023/02/12 10:49:58;;;;;;;1.35;0.47;;;;;;;;;;5019916;28;20506;-64
2023/02/12 10:52:27;;;;;;;0.98;0.30;;;;;;;;;;5021518;28;20131;-65
2023/02/12 10:54:54;;;;;;;0.93;0.40;;;;;;;;;;5020916;28;20047;-64
2023/02/12 10:57:23;;;;;;;0.98;0.40;;;;;;;;;;5020924;28;20231;-64
2023/02/12 10:59:52;;;;;;;3.15;0.63;;;;;;;;;;5020572;28;20048;-63
2023/02/12 11:02:25;;;;;;;1.67;0.45;;;;;;;;;;5018639;28;20427;-64
2023/02/12 11:04:54;;;;;;;1.27;0.40;;;;;;;;;;5020725;28;20080;-64
2023/02/12 11:07:21;;;;;;;0.90;0.35;;;;;;;;;;5020312;28;20525;-64
2023/02/12 11:09:49;;;;;;;1.75;0.50;;;;;;;;;;5023990;28;20072;-64
2023/02/12 11:12:18;;;;;;;0.75;0.40;;;;;;;;;;5017533;28;20486;-63
2023/02/12 11:14:48;;;;;;;1.98;0.50;;;;;;;;;;5019560;28;20034;-64
2023/02/12 11:17:22;;;;;;;1.58;0.40;;;;;;;;;;5022114;28;20040;-65
2023/02/12 11:20:01;;;;;;;1.63;0.50;;;;;;;;;;5023443;28;20033;-66
2023/02/12 11:22:29;;;;;;;0.90;0.32;;;;;;;;;;5025949;28;20045;-65
2023/02/12 11:25:08;;;;;;;1.23;0.52;;;;;;;;;;5039582;28;20045;-65
2023/02/12 11:27:34;;;;;;;1.80;0.50;;;;;;;;;;5028136;28;20065;-65
2023/02/12 11:30:11;;;;;;;0.98;0.40;;;;;;;;;;5026288;28;20641;-63
2023/02/12 11:32:37;;;;;;;2.90;0.60;;;;;;;;;;5013455;28;20037;-63
2023/02/12 11:35:23;;;;;;;1.02;0.40;;;;;;;;;;5005838;28;20065;-62
2023/02/12 11:37:51;;;;;;;1.15;0.40;;;;;;;;;;5005560;28;20120;-64
2023/02/12 11:40:36;;;;;;;0.73;0.40;;;;;;;;;;5001255;28;20053;-64
2023/02/12 11:43:07;;;;;;;0.95;0.40;;;;;;;;;;5019876;28;20045;-65
2023/02/12 11:45:36;;;;;;;1.40;0.40;;;;;;;;;;5001080;28;20525;-63
2023/02/12 11:48:09;;;;;;;1.33;0.40;;;;;;;;;;5023683;28;20045;-64
2023/02/12 11:50:36;;;;;;;1.83;0.60;;;;;;;;;;5025177;28;20033;-65
2023/02/12 11:53:08;;;;;;;1.23;0.50;;;;;;;;;;5025857;28;20041;-62
2023/02/12 11:55:37;;;;;;;0.75;0.30;;;;;;;;;;5021692;28;20042;-64
2023/02/12 11:58:05;;;;;;;1.17;0.40;;;;;;;;;;5020700;28;20044;-63
2023/02/12 12:00:35;;;;;;;2.95;0.40;;;;;;;;;;5018996;28;20178;-63
2023/02/12 12:03:05;;;;;;;1.20;0.40;;;;;;;;;;5019226;28;20053;-61
2023/02/12 12:05:35;;;;;;;0.73;0.30;;;;;;;;;;5018724;28;20033;-64
2023/02/12 12:08:04;;;;;;;0.93;0.32;;;;;;;;;;5019899;28;20056;-62
2023/02/12 12:11:00;;;;;;;1.45;0.60;;;;;;;;;;5019731;28;20053;-63
2023/02/12 12:13:36;;;;;;;2.30;0.40;;;;;;;;;;5007164;28;20558;-62
2023/02/12 12:21:53;;;;;;;0.32;0.30;;;;;;;;;;5008990;28;20104;-63
2023/02/12 12:24:35;;;;;;;1.13;0.30;;;;;;;;;;5001434;28;20060;-64
2023/02/12 12:30:08;;;;;;;1.23;0.45;;;;;;;;;;5015585;28;20060;-64
2023/02/12 12:32:36;;;;;;;1.58;0.45;;;;;;;;;;4999725;28;20905;-66
2023/02/12 12:35:03;;;;;;;2.13;0.50;;;;;;;;;;4999474;28;21866;-65
2023/02/12 12:37:37;;;;;;;1.80;0.50;;;;;;;;;;4999646;28;20213;-65
2023/02/12 12:40:17;;;;;;;0.75;0.30;;;;;;;;;;4998721;28;20093;-64
2023/02/12 12:42:59;;;;;;;1.75;0.50;;;;;;;;;;5010527;28;20069;-65
2023/02/12 12:45:47;;;;;;;2.73;0.60;;;;;;;;;;4998011;28;20124;-65
2023/02/12 12:48:13;;;;;;;1.80;0.50;;;;;;;;;;4998608;28;20052;-65
2023/02/12 12:50:52;;;;;;;2.78;0.50;;;;;;;;;;4997951;28;20538;-66
2023/02/12 12:53:27;;;;;;;3.28;0.80;;;;;;;;;;4997949;28;20045;-65
2023/02/12 12:56:13;;;;;;;2.80;0.98;;;;;;;;;;4998968;28;20050;-63
2023/02/12 12:59:06;;;;;;;1.98;0.60;;;;;;;;;;5000062;28;20042;-66
2023/02/12 13:01:35;;;;;;;3.15;0.60;;;;;;;;;;4986366;28;20037;-64
2023/02/12 13:04:15;;;;;;;4.18;0.80;;;;;;;;;;5005192;28;20176;-65
2023/02/12 13:07:00;;;;;;;1.88;0.55;;;;;;;;;;5001497;28;20504;-66
2023/02/12 13:09:44;;;;;;;2.35;0.50;;;;;;;;;;5012359;28;20042;-66
2023/02/12 13:12:28;;;;;;;1.02;0.40;;;;;;;;;;5003706;28;20042;-63
2023/02/12 13:15:01;;;;;;;1.98;0.55;;;;;;;;;;5022375;28;20033;-62
2023/02/12 13:17:44;;;;;;;2.80;0.40;;;;;;;;;;5023181;28;20038;-63
2023/02/12 13:20:34;;;;;;;1.40;0.40;;;;;;;;;;5022576;28;20030;-63
2023/02/12 13:23:14;;;;;;;1.08;0.45;;;;;;;;;;4972065;28;20585;-65
2023/02/12 13:25:49;;;;;;;1.88;0.40;;;;;;;;;;5024065;28;20490;-64
2023/02/12 13:28:22;;;;;;;0.63;0.30;;;;;;;;;;5025870;28;20037;-64
2023/02/12 13:30:50;;;;;;;1.00;0.43;;;;;;;;;;5025364;28;20049;-64
2023/02/12 13:33:19;;;;;;;2.30;0.40;;;;;;;;;;5024769;28;20058;-66
2023/02/12 13:35:48;;;;;;;1.65;0.50;;;;;;;;;;5029166;28;20033;-65
2023/02/12 13:38:25;;;;;;;2.00;0.70;;;;;;;;;;5028387;28;20335;-66
2023/02/12 13:40:55;;;;;;;4.82;0.95;;;;;;;;;;5028209;28;20041;-65
2023/02/12 13:43:33;;;;;;;3.13;0.70;;;;;;;;;;5027209;28;20046;-65
2023/02/12 13:46:07;;;;;;;2.90;0.82;;;;;;;;;;5025057;28;20365;-64
2023/02/12 13:48:37;;;;;;;4.10;0.90;;;;;;;;;;5021991;28;20049;-64
2023/02/12 13:51:06;;;;;;;5.53;0.80;;;;;;;;;;5023011;28;20056;-65
2023/02/12 13:53:46;;;;;;;3.95;1.17;;;;;;;;;;5018484;28;20044;-65
2023/02/12 13:56:13;;;;;;;5.75;1.50;;;;;;;;;;5006044;28;20152;-65
2023/02/12 13:58:40;;;;;;;7.22;2.28;;;;;;;;;;5019361;28;20150;-64
2023/02/12 14:01:14;;;;;;;8.07;1.65;;;;;;;;;;5021856;28;20507;-64
2023/02/12 14:03:40;;;;;;;7.22;1.17;;;;;;;;;;5013369;28;20042;-66
2023/02/12 14:06:12;;;;;;;3.47;0.88;;;;;;;;;;5007271;28;20049;-66
2023/02/12 14:08:41;;;;;;;5.55;0.93;;;;;;;;;;5005670;28;20046;-66
2023/02/12 14:11:09;;;;;;;3.90;1.13;;;;;;;;;;5015090;28;20129;-64
2023/02/12 14:13:46;;;;;;;5.72;1.02;;;;;;;;;;5000684;28;20129;-62
2023/02/12 14:16:20;;;;;;;7.30;0.93;;;;;;;;;;5001179;28;20895;-63
2023/02/12 14:18:47;;;;;;;3.28;1.13;;;;;;;;;;4998978;28;20053;-62
2023/02/12 14:21:15;;;;;;;2.42;0.80;;;;;;;;;;4999592;28;20045;-65
2023/02/12 14:23:44;;;;;;;3.47;1.08;;;;;;;;;;5000279;28;20049;-64
2023/02/12 14:26:13;;;;;;;6.32;1.38;;;;;;;;;;5001339;28;20166;-62
2023/02/12 14:28:52;;;;;;;6.75;1.20;;;;;;;;;;4998740;28;20038;-65
2023/02/12 14:31:21;;;;;;;5.78;1.45;;;;;;;;;;5000925;28;20054;-65
2023/02/12 15:49:21;;;;;;;3.25;0.70;;;;;;;;;;5047416;28;21372;-63
2023/02/12 15:51:48;;;;;;;2.65;0.80;;;;;;;;;;5041150;28;20041;-65
2023/02/12 15:54:17;;;;;;;3.80;1.02;;;;;;;;;;5041486;28;20024;-64
2023/02/12 15:56:44;;;;;;;5.32;1.00;;;;;;;;;;5040347;28;20029;-64
2023/02/12 15:59:19;;;;;;;8.98;1.65;;;;;;;;;;5041209;28;20037;-63
2023/02/12 16:01:54;;;;;;;9.80;1.90;;;;;;;;;;5041713;28;20048;-64
2023/02/12 16:04:21;;;;;;;7.32;1.98;;;;;;;;;;5041229;28;20409;-66
2023/02/12 16:06:47;;;;;;;14.45;2.50;;;;;;;;;;5041846;28;20132;-64
2023/02/12 16:09:14;;;;;;;10.57;2.80;;;;;;;;;;5039066;28;20758;-64
2023/02/12 16:11:43;;;;;;;8.10;2.50;;;;;;;;;;5040550;28;20044;-65
2023/02/12 16:14:30;;;;;;;8.13;2.40;;;;;;;;;;5041013;28;20048;-65
2023/02/12 16:16:58;;;;;;;8.63;2.53;;;;;;;;;;5021653;28;20050;-65
2023/02/12 16:19:29;;;;;;;6.82;1.98;;;;;;;;;;5020032;28;20490;-61
2023/02/12 16:22:00;;;;;;;6.25;1.50;;;;;;;;;;5021946;28;20121;-64
2023/02/12 16:24:38;;;;;;;4.43;0.95;;;;;;;;;;5019981;28;20515;-65
2023/02/12 16:27:24;;;;;;;1.27;0.50;;;;;;;;;;5020656;28;20045;-65
2023/02/12 16:30:01;;;;;;;2.28;0.60;;;;;;;;;;5019652;28;20042;-64
2023/02/12 16:32:31;;;;;;;1.92;0.60;;;;;;;;;;5019043;28;20045;-63